createdAt,value
2019-02-16T00:03:09.819Z,61.30
2019-02-16T00:05:37.596Z,60.90
2019-02-16T00:08:07.964Z,60.60
2019-02-16T00:10:36.341Z,61.20
2019-02-16T00:13:05.935Z,61.40
2019-02-16T00:15:34.745Z,61.40
2019-02-16T00:18:06.096Z,61.30
2019-02-16T00:20:34.595Z,61.70
2019-02-16T00:23:02.942Z,61.60
2019-02-16T00:25:31.652Z,61.40
2019-02-16T00:28:00.611Z,61.30
2019-02-16T00:30:29.316Z,61.20
2019-02-16T00:32:56.990Z,61.00
2019-02-16T00:35:25.464Z,61.10
2019-02-16T00:37:53.854Z,61.60
2019-02-16T00:40:21.951Z,61.70
2019-02-16T00:42:50.017Z,62.50
2019-02-16T00:45:18.350Z,62.50
2019-02-16T00:50:14.699Z,81.80
2019-02-16T00:52:42.807Z,80.20
2019-02-16T00:57:43.361Z,74.50
2019-02-16T01:10:07.085Z,65.60
2019-02-16T01:12:35.964Z,62.50
2019-02-16T01:15:05.104Z,62.50
2019-02-16T01:17:33.754Z,62.60
2019-02-16T01:20:01.818Z,62.60
2019-02-16T01:22:29.892Z,62.60
2019-02-16T01:24:58.436Z,71.00
2019-02-16T01:42:15.941Z,63.20
2019-02-16T01:47:12.465Z,78.30
2019-02-16T01:52:10.035Z,73.50
2019-02-16T01:54:38.715Z,70.40
2019-02-16T01:59:36.008Z,71.40
2019-02-16T02:02:04.076Z,75.50
2019-02-16T02:04:31.655Z,75.50
2019-02-16T02:14:25.972Z,71.10
2019-02-16T02:16:54.054Z,76.80
2019-02-16T02:31:43.136Z,80.50
2019-02-16T02:36:39.850Z,72.30
2019-02-16T02:41:36.260Z,79.80
2019-02-16T02:51:28.083Z,75.70
2019-02-16T02:56:24.723Z,68.00
2019-02-16T02:58:53.007Z,68.00
2019-02-16T03:01:21.882Z,66.60
2019-02-16T03:08:45.185Z,76.10
2019-02-16T03:11:14.081Z,72.80
2019-02-16T03:21:06.616Z,77.80
2019-02-16T03:28:55.785Z,79.70
2019-02-16T03:31:51.918Z,73.30
2019-02-16T03:34:25.284Z,75.80
2019-02-16T03:39:42.709Z,71.50
2019-02-16T03:42:11.436Z,74.50
2019-02-16T03:44:39.820Z,80.50
2019-02-16T03:49:36.697Z,73.50
2019-02-16T03:52:13.253Z,69.40
2019-02-16T03:57:03.477Z,76.60
2019-02-16T03:59:32.050Z,78.60
2019-02-16T04:02:00.434Z,72.50
2019-02-16T04:06:57.575Z,77.00
2019-02-16T04:14:24.056Z,69.00
2019-02-16T04:16:52.325Z,76.50
2019-02-16T04:21:47.744Z,74.80
2019-02-16T04:34:12.967Z,74.20
2019-02-16T04:36:41.727Z,78.30
2019-02-16T04:39:11.056Z,74.30
2019-02-16T04:54:00.108Z,69.20
2019-02-16T04:58:56.547Z,69.00
2019-02-16T05:06:20.352Z,76.50
2019-02-16T05:13:44.123Z,69.40
2019-02-16T05:26:04.511Z,82.00
2019-02-16T05:31:01.500Z,75.50
2019-02-16T05:38:31.710Z,75.50
2019-02-16T05:53:21.381Z,75.00
2019-02-16T06:03:14.408Z,76.00
2019-02-16T06:08:10.757Z,75.70
2019-02-16T06:10:38.925Z,78.50
2019-02-16T06:13:07.008Z,69.20
2019-02-16T06:15:35.627Z,73.80
2019-02-16T06:18:04.186Z,70.50
2019-02-16T06:20:32.268Z,74.70
2019-02-16T06:25:32.017Z,68.80
2019-02-16T06:35:42.166Z,67.60
2019-02-16T06:43:05.596Z,68.60
2019-02-16T06:45:35.067Z,68.60
2019-02-16T06:53:03.291Z,71.00
2019-02-16T06:55:43.331Z,70.20
2019-02-16T06:58:11.710Z,69.60
2019-02-16T07:00:39.381Z,69.70
2019-02-16T07:03:08.167Z,69.80
2019-02-16T07:05:38.523Z,69.80
2019-02-16T07:08:08.629Z,69.40
2019-02-16T07:10:37.179Z,69.70
2019-02-16T07:13:05.367Z,70.00
2019-02-16T07:15:35.141Z,69.00
2019-02-16T07:18:14.852Z,68.00
2019-02-16T07:20:45.190Z,67.70
2019-02-16T07:23:21.979Z,67.00
2019-02-16T07:25:43.848Z,67.00
2019-02-16T07:28:11.912Z,66.80
2019-02-16T07:33:08.389Z,67.60
2019-02-16T07:35:36.864Z,68.30
2019-02-16T07:38:06.109Z,68.30
2019-02-16T07:40:37.622Z,68.30
2019-02-16T07:43:08.417Z,69.10
2019-02-16T07:45:45.097Z,67.60
2019-02-16T07:51:20.718Z,67.10
2019-02-16T07:54:06.306Z,66.60
2019-02-16T07:56:50.858Z,66.10
2019-02-16T08:02:13.412Z,66.00
2019-02-16T08:05:09.857Z,66.30
2019-02-16T08:07:57.065Z,66.00
2019-02-16T08:10:44.052Z,65.90
2019-02-16T08:13:39.313Z,65.40
2019-02-16T08:16:13.920Z,64.60
2019-02-16T08:19:07.385Z,64.50
2019-02-16T08:22:09.466Z,64.50
2019-02-16T08:24:57.641Z,63.90
2019-02-16T08:27:53.181Z,63.70
2019-02-16T08:30:55.996Z,63.20
2019-02-16T08:39:23.399Z,59.70
2019-02-16T08:42:14.353Z,58.40
2019-02-16T08:45:08.499Z,57.80
2019-02-16T08:50:48.955Z,56.70
2019-02-16T08:53:39.622Z,55.60
2019-02-16T08:56:36.305Z,54.40
2019-02-16T09:02:03.519Z,51.20
2019-02-16T09:04:51.210Z,50.00
2019-02-16T09:07:40.805Z,49.30
2019-02-16T09:10:28.623Z,47.60
2019-02-16T09:13:12.680Z,46.50
2019-02-16T09:15:50.494Z,46.60
2019-02-16T09:18:44.030Z,45.00
2019-02-16T09:21:19.182Z,43.80
2019-02-16T09:24:06.812Z,43.40
2019-02-16T09:26:52.858Z,42.60
2019-02-16T09:35:47.689Z,42.80
2019-02-16T09:38:34.111Z,41.20
2019-02-16T09:41:33.680Z,40.40
2019-02-16T09:44:32.046Z,40.40
2019-02-16T09:47:20.794Z,40.10
2019-02-16T09:50:07.612Z,39.10
2019-02-16T09:53:09.696Z,38.20
2019-02-16T09:55:57.318Z,37.70
2019-02-16T09:58:49.868Z,37.60
2019-02-16T10:01:43.240Z,36.50
2019-02-16T10:04:15.445Z,35.80
2019-02-16T10:07:01.844Z,35.10
2019-02-16T10:09:56.098Z,34.30
2019-02-16T10:12:34.610Z,33.50
2019-02-16T10:15:30.953Z,32.30
2019-02-16T10:18:37.323Z,31.80
2019-02-16T10:24:26.332Z,30.70
2019-02-16T10:29:58.739Z,28.50
2019-02-16T10:32:45.111Z,27.60
2019-02-16T10:35:31.002Z,27.70
2019-02-16T10:38:17.187Z,27.10
2019-02-16T10:43:42.744Z,26.60
2019-02-16T10:49:13.686Z,25.30
2019-02-16T10:52:06.629Z,24.80
2019-02-16T10:54:52.951Z,24.10
2019-02-16T11:00:20.092Z,21.10
2019-02-16T11:03:00.275Z,21.10
2019-02-16T11:05:37.264Z,18.40
2019-02-16T11:08:31.850Z,17.00
2019-02-16T11:11:28.889Z,16.70
2019-02-16T11:14:14.002Z,16.50
2019-02-16T11:16:53.718Z,16.50
2019-02-16T11:19:39.530Z,15.80
2019-02-16T11:22:22.573Z,15.50
2019-02-16T11:25:16.421Z,15.10
2019-02-16T11:27:56.086Z,14.50
2019-02-16T11:30:34.183Z,14.80
2019-02-16T11:33:10.785Z,14.30
2019-02-16T11:36:00.409Z,14.70
2019-02-16T11:38:44.450Z,15.40
2019-02-16T11:41:19.256Z,16.20
2019-02-16T11:46:47.225Z,15.70
2019-02-16T11:49:30.298Z,14.90
2019-02-16T11:52:32.763Z,15.60
2019-02-16T11:55:35.546Z,15.30
2019-02-16T12:01:06.271Z,14.10
2019-02-16T12:04:08.731Z,14.30
2019-02-16T12:06:55.382Z,14.90
2019-02-16T12:09:44.870Z,14.20
2019-02-16T12:12:20.136Z,14.10
2019-02-16T12:15:07.759Z,14.10
2019-02-16T12:17:53.650Z,14.00
2019-02-16T12:20:39.927Z,13.90
2019-02-16T12:23:26.784Z,14.10
2019-02-16T12:28:44.539Z,15.40
2019-02-16T12:31:50.083Z,14.00
2019-02-16T12:34:37.918Z,14.40
2019-02-16T12:37:12.613Z,14.50
2019-02-16T12:39:53.254Z,15.70
2019-02-16T12:42:39.649Z,16.40
2019-02-16T12:45:37.033Z,15.60
2019-02-16T12:48:22.082Z,16.40
2019-02-16T12:51:06.251Z,16.60
2019-02-16T12:53:54.083Z,16.00
2019-02-16T12:56:53.823Z,16.80
2019-02-16T12:59:29.160Z,18.30
2019-02-16T13:02:17.381Z,18.60
2019-02-16T13:05:07.589Z,20.60
2019-02-16T13:07:56.035Z,22.20
2019-02-16T13:10:47.886Z,20.40
2019-02-16T13:13:28.542Z,20.70
2019-02-16T13:16:22.707Z,20.30
2019-02-16T13:19:09.013Z,21.60
2019-02-16T13:22:08.636Z,21.70
2019-02-16T13:25:10.997Z,21.40
2019-02-16T13:27:59.446Z,21.90
2019-02-16T13:30:47.798Z,24.00
2019-02-16T13:33:45.780Z,24.80
2019-02-16T13:36:21.209Z,25.30
2019-02-16T13:39:08.467Z,23.80
2019-02-16T13:41:42.005Z,26.40
2019-02-16T13:44:35.247Z,26.80
2019-02-16T13:47:11.267Z,26.10
2019-02-16T13:49:52.148Z,26.30
2019-02-16T13:52:26.569Z,26.00
2019-02-16T13:55:14.678Z,27.20
2019-02-16T13:57:56.597Z,27.60
2019-02-16T14:00:34.104Z,27.70
2019-02-16T14:03:15.996Z,27.90
2019-02-16T14:05:55.856Z,27.80
2019-02-16T14:08:46.528Z,28.20
2019-02-16T14:11:45.946Z,27.80
2019-02-16T14:14:25.297Z,28.50
2019-02-16T14:17:11.468Z,29.00
2019-02-16T14:19:39.778Z,29.00
2019-02-16T14:24:45.183Z,30.00
2019-02-16T14:27:14.169Z,31.00
2019-02-16T14:29:42.438Z,30.60
2019-02-16T14:32:10.902Z,30.50
2019-02-16T14:39:47.493Z,30.40
2019-02-16T14:42:15.957Z,29.50
2019-02-16T14:44:45.091Z,28.90
2019-02-16T14:47:13.537Z,27.90
2019-02-16T14:49:41.567Z,26.80
2019-02-16T14:54:39.412Z,26.60
2019-02-16T14:59:36.235Z,27.90
2019-02-16T15:02:04.865Z,28.20
2019-02-16T15:07:00.987Z,29.70
2019-02-16T15:09:28.965Z,29.30
2019-02-16T15:11:56.997Z,28.60
2019-02-16T15:14:26.041Z,28.70
2019-02-16T15:16:55.539Z,29.20
2019-02-16T15:19:25.680Z,27.50
2019-02-16T15:26:50.695Z,32.90
2019-02-16T15:31:46.309Z,34.80
2019-02-16T15:41:38.480Z,39.80
2019-02-16T15:44:06.680Z,40.70
2019-02-16T15:49:03.752Z,41.50
2019-02-16T15:54:01.487Z,42.60
2019-02-16T15:56:28.782Z,43.40
2019-02-16T15:58:57.084Z,43.90
2019-02-16T16:01:25.416Z,43.90
2019-02-16T16:03:53.968Z,43.80
2019-02-16T16:06:22.327Z,44.80
2019-02-16T16:08:59.093Z,45.10
2019-02-16T16:11:58.113Z,45.50
2019-02-16T16:14:43.560Z,45.90
2019-02-16T16:17:30.298Z,46.00
2019-02-16T16:20:20.241Z,46.20
2019-02-16T16:23:10.848Z,46.70
2019-02-16T16:25:45.501Z,46.90
2019-02-16T16:28:31.047Z,47.40
2019-02-16T16:31:17.792Z,47.30
2019-02-16T16:34:14.603Z,48.10
2019-02-16T16:37:01.147Z,53.10
2019-02-16T16:53:41.046Z,50.00
2019-02-16T16:56:28.670Z,50.00
2019-02-16T16:59:20.241Z,50.20
2019-02-16T17:02:19.948Z,50.50
2019-02-16T17:05:04.080Z,50.90
2019-02-16T17:10:42.415Z,51.60
2019-02-16T17:13:36.376Z,52.50
2019-02-16T17:16:24.044Z,53.10
2019-02-16T17:19:14.139Z,53.50
2019-02-16T17:22:01.635Z,53.60
2019-02-16T17:24:48.360Z,53.20
2019-02-16T17:27:42.005Z,53.10
2019-02-16T17:30:26.894Z,53.70
2019-02-16T17:33:20.159Z,54.20
2019-02-16T17:35:56.714Z,54.40
2019-02-16T17:38:44.392Z,54.20
2019-02-16T17:41:43.579Z,55.20
2019-02-16T17:44:34.762Z,55.30
2019-02-16T17:47:21.177Z,55.50
2019-02-16T17:50:24.008Z,55.60
2019-02-16T17:53:11.682Z,56.20
2019-02-16T17:55:55.384Z,56.20
2019-02-16T17:58:42.148Z,56.70
2019-02-16T18:01:28.967Z,56.70
2019-02-16T18:04:16.709Z,56.80
2019-02-16T18:07:08.547Z,57.60
2019-02-16T18:09:47.060Z,57.50
2019-02-16T18:12:25.688Z,58.10
2019-02-16T18:15:28.035Z,58.30
2019-02-16T18:18:14.678Z,58.30
2019-02-16T18:21:11.798Z,58.60
2019-02-16T18:23:47.668Z,58.70
2019-02-16T18:26:37.167Z,58.60
2019-02-16T18:29:14.517Z,58.80
2019-02-16T18:32:02.972Z,58.90
2019-02-16T18:34:48.180Z,58.90
2019-02-16T18:37:31.263Z,59.40
2019-02-16T18:40:24.436Z,59.30
2019-02-16T18:46:03.890Z,59.80
2019-02-16T18:48:52.969Z,59.80
2019-02-16T18:51:59.615Z,59.90
2019-02-16T18:54:56.401Z,60.00
2019-02-16T18:57:41.243Z,60.00
2019-02-16T19:00:21.074Z,59.90
2019-02-16T19:03:10.271Z,60.30
2019-02-16T19:06:03.047Z,60.80
2019-02-16T19:08:56.999Z,60.80
2019-02-16T19:11:41.320Z,60.90
2019-02-16T19:14:44.032Z,60.90
2019-02-16T19:17:20.536Z,61.60
2019-02-16T19:20:23.381Z,61.10
2019-02-16T19:22:58.124Z,61.20
2019-02-16T19:25:45.014Z,62.00
2019-02-16T19:28:31.094Z,61.60
2019-02-16T19:34:05.976Z,62.10
2019-02-16T19:36:53.810Z,62.00
2019-02-16T19:39:41.049Z,62.10
2019-02-16T19:42:20.244Z,62.30
2019-02-16T19:45:03.812Z,63.00
2019-02-16T19:47:38.851Z,62.60
2019-02-16T19:53:09.901Z,62.80
2019-02-16T19:55:57.440Z,62.60
2019-02-16T19:58:40.022Z,63.00
2019-02-16T20:04:18.028Z,63.90
2019-02-16T20:07:05.914Z,63.80
2019-02-16T20:09:46.411Z,64.10
2019-02-16T20:12:32.790Z,64.50
2019-02-16T20:15:11.809Z,64.10
2019-02-16T20:17:56.156Z,63.70
2019-02-16T20:20:49.695Z,64.30
2019-02-16T20:23:39.995Z,64.40
2019-02-16T20:26:43.442Z,63.90
2019-02-16T20:29:33.702Z,64.30
2019-02-16T20:32:28.340Z,64.30
2019-02-16T20:35:06.046Z,64.30
2019-02-16T20:37:58.124Z,64.20
2019-02-16T20:40:40.430Z,64.50
2019-02-16T20:43:17.548Z,64.30
2019-02-16T20:46:01.266Z,64.30
2019-02-16T20:51:43.233Z,64.30
2019-02-16T20:54:43.006Z,64.50
2019-02-16T21:03:05.811Z,64.10
2019-02-16T21:08:44.646Z,64.20
2019-02-16T21:11:51.002Z,64.40
2019-02-16T21:14:37.072Z,64.10
2019-02-16T21:17:25.497Z,64.50
2019-02-16T21:20:22.096Z,64.50
2019-02-16T21:23:18.769Z,64.80
2019-02-16T21:26:00.820Z,64.50
2019-02-16T21:29:06.146Z,65.00
2019-02-16T21:31:52.590Z,65.00
2019-02-16T21:34:40.095Z,65.00
2019-02-16T21:37:34.091Z,65.10
2019-02-16T21:40:11.234Z,65.20
2019-02-16T21:42:46.323Z,65.40
2019-02-16T21:45:40.819Z,65.80
2019-02-16T21:48:26.554Z,65.90
2019-02-16T21:51:09.385Z,65.60
2019-02-16T21:53:48.757Z,67.50
2019-02-16T21:56:43.400Z,65.90
2019-02-16T21:59:30.156Z,66.10
2019-02-16T22:02:21.151Z,65.90
2019-02-16T22:05:07.863Z,66.20
2019-02-16T22:07:58.068Z,66.20
2019-02-16T22:10:51.675Z,66.80
2019-02-16T22:13:20.103Z,66.70
2019-02-16T22:15:50.253Z,66.50
2019-02-16T22:18:18.990Z,66.20
2019-02-16T22:20:47.111Z,66.50
2019-02-16T22:23:15.569Z,67.10
2019-02-16T22:25:43.056Z,66.60
2019-02-16T22:28:18.427Z,67.10
2019-02-16T22:30:42.098Z,67.50
2019-02-16T22:33:10.690Z,67.80
2019-02-16T22:35:38.815Z,67.20
2019-02-16T22:38:06.963Z,67.50
2019-02-16T22:40:37.922Z,67.50
2019-02-16T22:43:06.689Z,67.40
2019-02-16T22:45:35.136Z,67.50
2019-02-16T22:48:02.520Z,67.60
2019-02-16T22:50:31.002Z,67.30
2019-02-16T22:52:58.994Z,67.70
2019-02-16T22:55:27.741Z,67.20
2019-02-16T22:57:56.999Z,67.40
2019-02-16T23:00:37.069Z,67.40
2019-02-16T23:03:06.698Z,68.00
2019-02-16T23:05:34.816Z,67.40
2019-02-16T23:08:04.416Z,67.40
2019-02-16T23:10:32.717Z,67.30
2019-02-16T23:13:01.210Z,67.90
2019-02-16T23:15:29.667Z,67.50
2019-02-16T23:17:57.371Z,67.20
2019-02-16T23:20:25.192Z,67.80
2019-02-16T23:22:53.325Z,68.00
2019-02-16T23:27:50.135Z,68.00
2019-02-16T23:32:49.234Z,68.00
2019-02-16T23:37:47.052Z,67.80
2019-02-16T23:40:14.999Z,67.90
2019-02-16T23:42:42.653Z,68.10
2019-02-16T23:45:11.347Z,68.60
2019-02-16T23:52:34.917Z,69.50
2019-02-16T23:55:03.113Z,69.30
2019-02-16T23:57:32.032Z,69.20
